Time;durP1;ratioP1;P1;durP2;ratioP2;P2;SDS_P1;SDS_P2;PMS_P1;PMS_P2;Temp;Humidity;BMP_temperature;BMP_pressure;BME280_temperature;BME280_humidity;BME280_pressure;Samples;Min_cycle;Max_cycle;Signal;HPM_P1;HPM_P2
2021/04/28 00:00:38;;;;;;;6.10;3.45;;;8.00;93.00;;;;;;5040842;28;20714;-38
2021/04/28 00:03:07;;;;;;;4.22;3.47;;;8.00;93.00;;;;;;5039949;28;20227;-38
2021/04/28 00:05:34;;;;;;;4.25;3.85;;;7.90;93.20;;;;;;5041755;28;20199;-39
2021/04/28 00:08:01;;;;;;;4.55;4.13;;;7.90;93.00;;;;;;5041295;28;20200;-39
2021/04/28 00:10:31;;;;;;;5.32;3.25;;;7.80;93.10;;;;;;5044134;28;20218;-39
2021/04/28 00:12:58;;;;;;;4.30;3.22;;;7.80;93.20;;;;;;5036424;28;20182;-40
2021/04/28 00:15:27;;;;;;;3.85;3.45;;;7.80;93.70;;;;;;5061987;28;20199;-38
2021/04/28 00:17:55;;;;;;;4.35;3.08;;;7.70;93.80;;;;;;5049248;28;20195;-39
2021/04/28 00:20:23;;;;;;;7.05;4.03;;;7.80;94.10;;;;;;5047811;28;20223;-37
2021/04/28 00:22:50;;;;;;;3.67;3.25;;;7.80;94.10;;;;;;5044100;28;20732;-38
2021/04/28 00:25:19;;;;;;;4.40;3.78;;;7.70;94.10;;;;;;5046886;28;20292;-37
2021/04/28 00:27:46;;;;;;;4.30;3.28;;;7.70;94.30;;;;;;5029191;28;20250;-39
2021/04/28 00:30:15;;;;;;;6.28;3.65;;;7.60;94.50;;;;;;5038871;28;20215;-37
2021/04/28 00:32:43;;;;;;;4.15;3.72;;;7.60;94.70;;;;;;5039912;28;20196;-39
2021/04/28 00:35:12;;;;;;;6.63;4.00;;;7.50;94.50;;;;;;5033126;28;20200;-39
2021/04/28 00:37:39;;;;;;;6.45;3.35;;;7.40;94.80;;;;;;5043252;28;20282;-39
2021/04/28 00:40:08;;;;;;;7.38;3.63;;;7.40;94.70;;;;;;5051497;28;20245;-40
2021/04/28 00:42:35;;;;;;;4.55;3.47;;;7.40;95.00;;;;;;5050193;28;20700;-37
2021/04/28 00:45:05;;;;;;;4.70;2.72;;;7.40;94.90;;;;;;5033164;28;20323;-38
2021/04/28 00:47:32;;;;;;;6.00;3.40;;;7.40;95.00;;;;;;5041533;28;20261;-38
2021/04/28 00:49:58;;;;;;;6.38;3.45;;;7.30;95.30;;;;;;5053101;28;20218;-39
2021/04/28 00:52:26;;;;;;;3.63;3.33;;;7.30;95.10;;;;;;5036650;28;20721;-39
2021/04/28 00:54:54;;;;;;;4.63;3.70;;;7.30;95.10;;;;;;5034070;28;20191;-37
2021/04/28 00:57:23;;;;;;;7.25;3.80;;;7.30;95.40;;;;;;5033157;28;20211;-39
2021/04/28 00:59:50;;;;;;;3.83;3.53;;;7.30;95.60;;;;;;5052431;28;20247;-38
2021/04/28 01:02:18;;;;;;;4.50;3.22;;;7.20;95.60;;;;;;5051736;28;20211;-39
2021/04/28 01:04:46;;;;;;;6.63;4.03;;;7.20;95.60;;;;;;5032678;28;20670;-38
2021/04/28 01:07:15;;;;;;;4.25;3.08;;;7.20;96.20;;;;;;5029013;28;20200;-38
2021/04/28 01:09:43;;;;;;;4.03;2.88;;;7.10;96.10;;;;;;5032930;28;20317;-38
2021/04/28 01:12:11;;;;;;;6.22;3.65;;;7.10;96.10;;;;;;5039427;28;20677;-38
2021/04/28 01:14:38;;;;;;;2.80;2.60;;;7.10;96.10;;;;;;5032117;28;20203;-37
2021/04/28 01:17:06;;;;;;;6.60;3.42;;;7.10;96.10;;;;;;5029675;28;20361;-38
2021/04/28 01:19:38;;;;;;;4.85;3.05;;;7.20;96.30;;;;;;5032788;28;20649;-37
2021/04/28 01:22:08;;;;;;;5.97;3.55;;;7.20;96.10;;;;;;5045498;28;20287;-38
2021/04/28 01:24:36;;;;;;;4.30;3.47;;;7.20;95.90;;;;;;5033544;28;20210;-39
2021/04/28 01:27:08;;;;;;;3.95;3.00;;;7.30;96.00;;;;;;5051526;28;20570;-38
2021/04/28 01:29:36;;;;;;;3.63;3.22;;;7.30;95.90;;;;;;5034654;28;20211;-39
2021/04/28 01:32:04;;;;;;;5.28;2.88;;;7.30;96.20;;;;;;5026729;28;20662;-39
2021/04/28 01:34:32;;;;;;;4.95;2.95;;;7.20;96.10;;;;;;5052271;28;20203;-38
2021/04/28 01:37:00;;;;;;;7.30;3.42;;;7.20;96.20;;;;;;5034017;28;20603;-38
2021/04/28 01:39:27;;;;;;;3.72;3.45;;;7.20;96.20;;;;;;5032368;28;20564;-38
2021/04/28 01:41:55;;;;;;;4.30;3.03;;;7.20;96.10;;;;;;5032178;28;20608;-39
2021/04/28 01:44:23;;;;;;;4.53;3.45;;;7.20;96.30;;;;;;5051095;28;20191;-38
2021/04/28 01:46:52;;;;;;;5.78;3.35;;;7.20;96.40;;;;;;5041016;28;20246;-38
2021/04/28 01:49:21;;;;;;;4.68;2.83;;;7.10;96.20;;;;;;5029023;23;20236;-38
2021/04/28 01:51:48;;;;;;;4.00;3.47;;;6.90;96.30;;;;;;5032478;28;20184;-37
2021/04/28 01:54:18;;;;;;;4.18;2.97;;;6.80;96.90;;;;;;5031246;28;20210;-36
2021/04/28 01:56:48;;;;;;;5.55;3.78;;;6.80;97.20;;;;;;5031133;28;20200;-37
2021/04/28 01:59:40;;;;;;;4.35;3.10;;;6.80;97.50;;;;;;5032509;28;20216;-36
2021/04/28 02:02:25;;;;;;;3.55;3.03;;;6.70;97.40;;;;;;5032208;28;20220;-37
2021/04/28 02:04:53;;;;;;;5.32;3.63;;;6.80;97.50;;;;;;5031190;28;20601;-38
2021/04/28 02:07:20;;;;;;;4.45;2.78;;;6.70;97.80;;;;;;5031474;28;20230;-37
2021/04/28 02:09:49;;;;;;;4.25;3.25;;;6.70;98.20;;;;;;5030467;28;20220;-36
2021/04/28 02:12:23;;;;;;;3.97;3.42;;;6.50;98.50;;;;;;5031428;28;20199;-38
2021/04/28 02:14:53;;;;;;;4.35;3.35;;;6.50;98.50;;;;;;5027380;28;20200;-38
2021/04/28 02:17:32;;;;;;;3.90;2.90;;;6.50;99.00;;;;;;5030867;28;20224;-36
2021/04/28 02:20:03;;;;;;;3.15;2.92;;;6.50;99.30;;;;;;5031043;28;20579;-37
2021/04/28 02:22:38;;;;;;;4.45;3.35;;;6.40;99.30;;;;;;5032135;28;20265;-37
2021/04/28 02:25:15;;;;;;;3.30;2.97;;;6.30;99.50;;;;;;5024117;28;20206;-37
2021/04/28 02:27:53;;;;;;;4.45;3.55;;;6.40;99.50;;;;;;5030969;28;20196;-37
2021/04/28 02:30:24;;;;;;;4.40;2.80;;;6.40;99.60;;;;;;5031232;28;20212;-36
2021/04/28 02:32:52;;;;;;;3.60;3.30;;;6.30;99.60;;;;;;5031214;28;20279;-37
2021/04/28 02:35:48;;;;;;;3.65;3.10;;;6.30;99.60;;;;;;4975668;28;20198;-36
2021/04/28 02:38:39;;;;;;;4.30;3.78;;;6.30;99.70;;;;;;5023523;28;20282;-36
2021/04/28 02:41:09;;;;;;;3.28;2.95;;;6.20;99.90;;;;;;5031639;28;20211;-37
2021/04/28 02:43:42;;;;;;;3.90;3.10;;;6.10;99.90;;;;;;5031897;28;20220;-37
2021/04/28 02:46:16;;;;;;;4.57;3.60;;;6.10;99.90;;;;;;5030594;28;20672;-38
2021/04/28 02:48:48;;;;;;;4.20;3.83;;;6.10;99.90;;;;;;5030424;28;20227;-36
2021/04/28 02:51:35;;;;;;;3.50;3.17;;;6.10;99.90;;;;;;5031901;28;20195;-36
2021/04/28 02:54:08;;;;;;;3.72;3.10;;;6.10;99.90;;;;;;5029766;28;20192;-36
2021/04/28 02:56:36;;;;;;;4.28;3.78;;;6.10;99.90;;;;;;5031293;28;20246;-37
2021/04/28 02:59:04;;;;;;;5.60;3.05;;;6.10;99.90;;;;;;5031365;28;20706;-37
2021/04/28 03:01:32;;;;;;;5.40;3.95;;;6.10;99.90;;;;;;5015780;28;20274;-37
2021/04/28 03:04:01;;;;;;;4.50;3.70;;;6.10;99.90;;;;;;5026373;28;20203;-37
2021/04/28 03:06:46;;;;;;;5.35;3.72;;;6.00;99.90;;;;;;5030082;28;20203;-36
2021/04/28 03:09:14;;;;;;;4.38;3.42;;;5.90;99.90;;;;;;5029697;28;20363;-37
2021/04/28 03:11:42;;;;;;;3.15;2.90;;;5.80;99.90;;;;;;5031184;28;20198;-35
2021/04/28 03:14:17;;;;;;;4.50;4.10;;;5.80;99.90;;;;;;5029244;28;20586;-36
2021/04/28 03:16:46;;;;;;;6.38;4.25;;;5.80;99.90;;;;;;5029526;28;20680;-37
2021/04/28 03:19:15;;;;;;;3.00;2.72;;;5.80;99.90;;;;;;5030982;28;20219;-37
2021/04/28 03:21:45;;;;;;;4.88;3.83;;;5.80;99.90;;;;;;5030736;28;20204;-36
2021/04/28 03:24:15;;;;;;;4.35;3.83;;;5.70;99.90;;;;;;5029534;28;20192;-37
2021/04/28 03:26:42;;;;;;;4.22;3.67;;;5.80;99.90;;;;;;5031012;28;20192;-36
2021/04/28 03:29:10;;;;;;;3.78;3.33;;;5.70;99.90;;;;;;5029490;28;20258;-35
2021/04/28 03:31:40;;;;;;;4.40;3.55;;;5.70;99.90;;;;;;5029142;28;20184;-36
2021/04/28 03:34:09;;;;;;;8.73;4.47;;;5.80;99.90;;;;;;5029110;28;20199;-35
2021/04/28 03:36:36;;;;;;;6.38;3.58;;;5.80;99.90;;;;;;5030298;28;20638;-35
2021/04/28 03:39:27;;;;;;;4.85;4.10;;;5.70;99.90;;;;;;5013176;28;20590;-35
2021/04/28 03:41:55;;;;;;;7.63;4.63;;;5.70;99.90;;;;;;5029359;28;20297;-35
2021/04/28 03:44:22;;;;;;;7.05;4.38;;;5.60;99.90;;;;;;5029469;28;20238;-35
2021/04/28 03:46:54;;;;;;;7.30;4.32;;;5.50;99.90;;;;;;5029206;28;20689;-35
2021/04/28 03:49:22;;;;;;;5.25;3.90;;;5.50;99.90;;;;;;5028905;28;20224;-35
2021/04/28 03:51:50;;;;;;;6.78;4.15;;;5.50;99.90;;;;;;5029349;28;20245;-35
2021/04/28 03:54:18;;;;;;;3.95;3.45;;;5.50;99.90;;;;;;5030545;28;20204;-36
2021/04/28 03:56:49;;;;;;;4.05;3.42;;;5.50;99.90;;;;;;5028425;28;20204;-35
2021/04/28 03:59:16;;;;;;;5.13;3.90;;;5.50;99.90;;;;;;5028898;28;20216;-36
2021/04/28 04:01:46;;;;;;;6.57;4.18;;;5.50;99.90;;;;;;5029005;28;20607;-37
2021/04/28 04:04:14;;;;;;;5.70;4.30;;;5.60;99.90;;;;;;5028784;28;20283;-36
2021/04/28 04:07:00;;;;;;;8.70;5.03;;;5.60;99.90;;;;;;5029860;28;20195;-36
2021/04/28 04:09:35;;;;;;;5.00;3.90;;;5.60;99.90;;;;;;5029695;28;20266;-36
2021/04/28 04:12:04;;;;;;;3.95;3.55;;;5.70;99.90;;;;;;5029092;28;20825;-36
2021/04/28 04:14:38;;;;;;;6.13;4.10;;;5.70;99.90;;;;;;5024932;28;20238;-36
2021/04/28 04:17:05;;;;;;;4.95;4.00;;;5.60;99.90;;;;;;5030074;28;20189;-37
2021/04/28 04:19:32;;;;;;;9.15;4.85;;;5.60;99.90;;;;;;5029497;28;20838;-36
2021/04/28 04:22:15;;;;;;;8.65;3.42;;;5.70;99.90;;;;;;5029907;28;20212;-37
2021/04/28 04:24:49;;;;;;;5.20;4.30;;;5.70;99.90;;;;;;5028894;28;20230;-36
2021/04/28 04:27:16;;;;;;;3.67;3.38;;;5.70;99.90;;;;;;5030062;28;20192;-36
2021/04/28 04:29:49;;;;;;;4.78;3.30;;;5.70;99.90;;;;;;5028575;28;20242;-36
2021/04/28 04:32:32;;;;;;;6.25;3.65;;;5.80;99.90;;;;;;5029722;28;20599;-36
2021/04/28 04:35:18;;;;;;;4.05;3.58;;;5.80;99.90;;;;;;5029782;28;20223;-36
2021/04/28 04:38:01;;;;;;;4.93;3.83;;;5.80;99.90;;;;;;5029966;28;20200;-36
2021/04/28 04:40:54;;;;;;;3.38;3.08;;;5.90;99.90;;;;;;5017021;28;20216;-36
2021/04/28 04:43:36;;;;;;;5.18;3.72;;;5.90;99.90;;;;;;5029944;28;20196;-36
2021/04/28 04:46:21;;;;;;;5.88;4.32;;;5.90;99.90;;;;;;5029672;28;20200;-37
2021/04/28 04:48:49;;;;;;;15.40;11.30;;;6.10;99.90;;;;;;5031075;28;20200;-35
2021/04/28 04:51:15;;;;;;;10.63;6.20;;;6.30;99.90;;;;;;5032357;28;20771;-36
2021/04/28 04:53:43;;;;;;;10.93;6.10;;;6.30;99.90;;;;;;5031575;28;20203;-37
2021/04/28 04:56:10;;;;;;;7.18;5.82;;;6.50;99.90;;;;;;5029533;28;20224;-38
2021/04/28 04:58:37;;;;;;;4.38;3.95;;;6.80;99.90;;;;;;5029743;28;20567;-36
2021/04/28 05:01:04;;;;;;;6.47;5.13;;;6.90;99.90;;;;;;5029325;28;20629;-36
2021/04/28 05:03:31;;;;;;;5.82;4.20;;;6.80;99.90;;;;;;5029580;28;20290;-36
2021/04/28 05:05:57;;;;;;;8.40;5.25;;;6.80;99.90;;;;;;5029334;28;20586;-36
2021/04/28 05:08:24;;;;;;;12.70;5.10;;;6.70;99.90;;;;;;5029837;28;20493;-35
2021/04/28 05:10:53;;;;;;;5.78;3.80;;;6.70;99.90;;;;;;5030380;28;20701;-36
2021/04/28 05:13:20;;;;;;;7.65;4.22;;;6.60;99.90;;;;;;5029620;28;20618;-36
2021/04/28 05:15:47;;;;;;;6.75;4.97;;;6.60;99.90;;;;;;5029586;28;20200;-36
2021/04/28 05:18:13;;;;;;;18.23;11.75;;;6.60;99.90;;;;;;5031008;28;20203;-36
2021/04/28 05:20:40;;;;;;;6.82;4.55;;;6.60;99.90;;;;;;5033126;28;20281;-36
2021/04/28 05:23:06;;;;;;;7.20;4.32;;;6.60;99.90;;;;;;5032846;28;20212;-36
2021/04/28 05:25:53;;;;;;;4.78;3.65;;;6.70;99.90;;;;;;5033324;28;20679;-37
2021/04/28 05:28:20;;;;;;;7.78;4.50;;;6.70;99.90;;;;;;5032846;28;20289;-37
2021/04/28 05:30:47;;;;;;;5.72;3.60;;;6.70;99.90;;;;;;5015602;28;20220;-36
2021/04/28 05:33:13;;;;;;;7.82;4.43;;;6.70;99.90;;;;;;5032780;28;20181;-35
2021/04/28 05:35:40;;;;;;;8.43;4.50;;;6.70;99.90;;;;;;5032733;28;20734;-36
2021/04/28 05:38:07;;;;;;;9.35;7.45;;;7.00;99.90;;;;;;5032437;28;20228;-36
2021/04/28 05:40:34;;;;;;;13.10;6.82;;;7.10;99.90;;;;;;5029628;28;20255;-36
2021/04/28 05:43:02;;;;;;;7.13;4.85;;;7.10;99.90;;;;;;5024056;28;20226;-36
2021/04/28 05:45:29;;;;;;;6.57;4.32;;;7.10;99.90;;;;;;5032328;28;20675;-36
2021/04/28 05:47:55;;;;;;;6.38;5.13;;;7.30;99.90;;;;;;5033229;28;20203;-36
2021/04/28 05:50:22;;;;;;;18.20;5.70;;;7.30;99.90;;;;;;5032859;28;20668;-36
2021/04/28 05:52:48;;;;;;;5.38;4.32;;;7.30;99.90;;;;;;5032645;28;20286;-36
2021/04/28 05:55:23;;;;;;;10.23;4.03;;;7.40;99.90;;;;;;5033306;28;20552;-37
2021/04/28 05:57:54;;;;;;;10.80;5.07;;;7.60;99.90;;;;;;5032298;28;20211;-36
2021/04/28 06:00:23;;;;;;;6.90;4.80;;;7.70;99.80;;;;;;5032347;28;20726;-37
2021/04/28 06:02:49;;;;;;;9.07;5.15;;;7.80;99.90;;;;;;5031921;28;20216;-36
2021/04/28 06:05:17;;;;;;;7.00;4.28;;;7.90;99.90;;;;;;5032597;28;20203;-36
2021/04/28 06:07:44;;;;;;;8.20;4.95;;;7.80;99.60;;;;;;5032558;28;20192;-36
2021/04/28 06:10:16;;;;;;;11.15;4.82;;;7.90;99.30;;;;;;5032302;28;20235;-37
2021/04/28 06:12:45;;;;;;;6.90;4.18;;;8.10;99.20;;;;;;5032140;28;20227;-37
2021/04/28 06:15:13;;;;;;;5.53;4.40;;;8.20;99.60;;;;;;5032009;28;20755;-38
2021/04/28 06:17:42;;;;;;;12.18;9.18;;;8.20;99.40;;;;;;5032289;28;20204;-36
2021/04/28 06:20:11;;;;;;;6.50;5.15;;;8.30;99.50;;;;;;5032636;28;20432;-36
2021/04/28 06:22:37;;;;;;;17.33;6.00;;;8.40;99.10;;;;;;5032164;28;20211;-37
2021/04/28 06:25:05;;;;;;;8.80;5.28;;;8.50;99.40;;;;;;5031548;28;20207;-36
2021/04/28 06:27:32;;;;;;;6.18;5.05;;;8.70;98.90;;;;;;5031762;28;20203;-36
2021/04/28 06:29:59;;;;;;;10.52;5.35;;;8.70;98.30;;;;;;5032218;28;20232;-36
2021/04/28 06:32:29;;;;;;;10.32;5.45;;;8.70;98.30;;;;;;5032498;28;20275;-36
2021/04/28 06:35:01;;;;;;;9.82;5.00;;;8.70;98.10;;;;;;5032086;28;20196;-36
2021/04/28 06:37:28;;;;;;;11.40;5.20;;;8.70;98.30;;;;;;5031821;28;20200;-37
2021/04/28 06:39:54;;;;;;;12.57;6.03;;;8.70;98.60;;;;;;5032240;28;20216;-36
2021/04/28 06:42:21;;;;;;;5.40;4.85;;;8.80;98.30;;;;;;5031822;28;20717;-36
2021/04/28 06:44:48;;;;;;;9.25;5.40;;;9.00;97.90;;;;;;5031812;28;20204;-36
2021/04/28 06:47:15;;;;;;;5.60;5.03;;;9.00;98.70;;;;;;5031731;28;20675;-38
2021/04/28 06:49:42;;;;;;;8.27;5.00;;;9.20;98.40;;;;;;5031271;28;20243;-37
2021/04/28 06:52:10;;;;;;;5.35;4.53;;;9.20;98.20;;;;;;5030950;28;20266;-37
2021/04/28 06:54:37;;;;;;;6.50;5.25;;;9.30;98.70;;;;;;5031314;28;20196;-38
2021/04/28 06:57:05;;;;;;;8.73;5.97;;;9.40;98.80;;;;;;5031359;28;20210;-37
2021/04/28 06:59:32;;;;;;;10.40;4.78;;;9.50;97.90;;;;;;5029668;28;20318;-36
2021/04/28 07:01:59;;;;;;;8.23;5.15;;;9.30;99.10;;;;;;5029770;28;20216;-36
2021/04/28 07:04:25;;;;;;;7.93;5.53;;;9.30;99.30;;;;;;5031396;28;20207;-37
2021/04/28 07:06:52;;;;;;;6.15;5.13;;;9.40;98.80;;;;;;5031181;28;20195;-37
2021/04/28 07:09:20;;;;;;;7.85;6.45;;;9.60;98.90;;;;;;5031241;28;20219;-37
2021/04/28 07:11:49;;;;;;;7.57;5.05;;;9.70;98.80;;;;;;5030944;28;20188;-37
2021/04/28 07:14:16;;;;;;;9.30;5.43;;;9.90;98.60;;;;;;5030993;28;20204;-37
2021/04/28 07:16:43;;;;;;;7.38;5.47;;;9.90;98.50;;;;;;5030978;28;20582;-36
2021/04/28 07:19:23;;;;;;;10.65;5.65;;;9.90;98.70;;;;;;5030782;28;20219;-37
2021/04/28 07:21:49;;;;;;;8.65;5.50;;;10.10;98.80;;;;;;5031409;28;20223;-37
2021/04/28 07:24:16;;;;;;;5.63;4.88;;;10.10;98.80;;;;;;5042315;22;20207;-80
2021/04/28 07:26:44;;;;;;;7.78;5.47;;;10.10;99.10;;;;;;5038752;28;20503;-82
2021/04/28 07:29:11;;;;;;;9.25;5.75;;;10.30;98.60;;;;;;5057622;28;20204;-82
2021/04/28 07:31:38;;;;;;;10.35;6.20;;;10.40;98.90;;;;;;5058603;28;20179;-82
2021/04/28 07:34:05;;;;;;;9.25;5.63;;;10.50;98.70;;;;;;5056829;28;20199;-79
2021/04/28 07:36:32;;;;;;;8.10;5.40;;;10.70;98.90;;;;;;5055410;28;20258;-80
2021/04/28 07:38:59;;;;;;;14.98;5.47;;;10.80;98.80;;;;;;5060898;22;20266;-37
2021/04/28 07:41:26;;;;;;;7.40;6.13;;;10.80;98.70;;;;;;5029818;28;20216;-38
2021/04/28 07:44:05;;;;;;;7.88;5.70;;;10.80;98.70;;;;;;5030395;28;20675;-37
2021/04/28 07:46:34;;;;;;;11.20;6.65;;;11.10;98.50;;;;;;5048506;28;20234;-37
2021/04/28 07:49:04;;;;;;;6.82;6.20;;;11.10;98.30;;;;;;5044844;28;20199;-37
2021/04/28 07:51:30;;;;;;;11.63;5.70;;;11.30;98.40;;;;;;5053613;28;20195;-37
2021/04/28 07:53:57;;;;;;;7.70;5.38;;;11.50;97.90;;;;;;5054876;22;20238;-37
2021/04/28 07:56:23;;;;;;;7.55;5.65;;;11.50;97.90;;;;;;5026622;28;20208;-37
2021/04/28 07:58:51;;;;;;;7.00;6.25;;;11.50;97.80;;;;;;5028334;28;20703;-37
2021/04/28 08:01:20;;;;;;;10.77;6.38;;;11.50;97.50;;;;;;5016810;28;20703;-36
2021/04/28 08:03:47;;;;;;;7.65;6.53;;;11.50;97.60;;;;;;5017818;28;20250;-37
2021/04/28 08:06:14;;;;;;;7.75;6.18;;;11.70;98.00;;;;;;5068800;28;20269;-37
2021/04/28 08:08:41;;;;;;;8.25;6.20;;;11.90;98.10;;;;;;5052194;28;20223;-37
2021/04/28 08:11:07;;;;;;;6.82;6.22;;;12.00;97.60;;;;;;5048471;28;20226;-36
2021/04/28 08:13:34;;;;;;;7.03;6.32;;;12.00;97.70;;;;;;5048153;28;20207;-37
2021/04/28 08:16:01;;;;;;;7.90;7.07;;;12.20;97.50;;;;;;5045896;28;20292;-37
2021/04/28 08:18:29;;;;;;;10.38;7.32;;;12.20;97.40;;;;;;5044890;28;20733;-37
2021/04/28 08:20:55;;;;;;;10.35;6.82;;;12.20;97.20;;;;;;5048541;28;20204;-37
2021/04/28 08:23:25;;;;;;;6.80;6.10;;;12.10;97.50;;;;;;5048881;28;20310;-37
2021/04/28 08:25:52;;;;;;;8.25;6.60;;;12.30;97.90;;;;;;5047870;28;20188;-37
2021/04/28 08:28:18;;;;;;;8.90;7.45;;;12.50;97.60;;;;;;5041529;28;20354;-37
2021/04/28 08:30:45;;;;;;;13.52;9.75;;;12.70;97.80;;;;;;5044091;28;20247;-36
2021/04/28 08:33:12;;;;;;;14.48;9.88;;;12.40;97.70;;;;;;5037307;28;20232;-36
2021/04/28 08:35:40;;;;;;;8.32;6.82;;;12.60;97.90;;;;;;5048270;28;20199;-37
2021/04/28 08:38:07;;;;;;;10.30;7.20;;;12.70;97.60;;;;;;5048241;28;20191;-36
2021/04/28 08:40:34;;;;;;;9.30;6.50;;;12.90;97.70;;;;;;5048469;28;20223;-36
2021/04/28 08:43:02;;;;;;;8.85;7.25;;;13.00;97.60;;;;;;5046888;28;20203;-35
2021/04/28 08:45:29;;;;;;;8.93;6.95;;;13.00;97.50;;;;;;5044278;28;20199;-35
2021/04/28 08:47:56;;;;;;;6.65;5.88;;;13.20;97.50;;;;;;5048418;28;20207;-35
2021/04/28 08:50:23;;;;;;;11.45;8.20;;;13.30;97.60;;;;;;5050746;28;20215;-35
2021/04/28 08:52:52;;;;;;;10.38;7.57;;;13.60;96.80;;;;;;5049580;28;20261;-35
2021/04/28 08:55:19;;;;;;;9.18;6.93;;;13.60;96.70;;;;;;5049173;28;20223;-35
2021/04/28 08:57:46;;;;;;;7.20;6.53;;;13.80;96.90;;;;;;5051775;28;20670;-35
2021/04/28 09:00:14;;;;;;;7.65;6.80;;;13.80;97.10;;;;;;5063406;28;20222;-35
2021/04/28 09:02:54;;;;;;;7.40;6.55;;;14.00;97.20;;;;;;5052106;28;20207;-35
2021/04/28 09:05:22;;;;;;;8.95;7.00;;;14.20;97.00;;;;;;5055004;28;20241;-35
2021/04/28 09:07:50;;;;;;;11.07;7.50;;;14.10;96.60;;;;;;5051749;28;20191;-35
2021/04/28 09:10:20;;;;;;;9.63;6.75;;;14.20;96.80;;;;;;5058861;28;20594;-35
2021/04/28 09:12:56;;;;;;;13.50;7.55;;;14.30;96.50;;;;;;5054355;28;20188;-35
2021/04/28 09:15:37;;;;;;;7.13;6.18;;;14.40;96.30;;;;;;5060258;28;20194;-37
2021/04/28 09:18:06;;;;;;;10.02;7.15;;;14.40;96.50;;;;;;5053891;28;20199;-35
2021/04/28 09:21:11;;;;;;;9.90;8.00;;;14.50;96.70;;;;;;5011054;28;20208;-35
2021/04/28 09:24:18;;;;;;;10.90;7.45;;;14.60;96.50;;;;;;5002017;28;20217;-35
2021/04/28 09:27:26;;;;;;;8.57;7.68;;;14.80;96.00;;;;;;5029902;28;20287;-34
2021/04/28 09:30:24;;;;;;;7.35;6.63;;;14.90;96.10;;;;;;5050009;28;20558;-35
2021/04/28 09:33:02;;;;;;;11.15;7.90;;;15.10;96.50;;;;;;5032177;28;20257;-34
2021/04/28 09:35:29;;;;;;;8.98;7.18;;;15.30;95.40;;;;;;5041610;28;20272;-34
2021/04/28 09:37:58;;;;;;;9.60;7.03;;;15.40;95.80;;;;;;5046883;28;20226;-35
2021/04/28 09:40:41;;;;;;;10.07;7.70;;;15.50;95.60;;;;;;5058225;28;20191;-34
2021/04/28 09:43:09;;;;;;;10.93;8.02;;;15.60;95.30;;;;;;5058025;28;20210;-35
2021/04/28 09:45:43;;;;;;;14.07;8.82;;;15.60;95.50;;;;;;5049031;28;20204;-35
2021/04/28 09:48:11;;;;;;;14.48;12.00;;;15.80;94.80;;;;;;5060195;28;20190;-35
2021/04/28 09:50:38;;;;;;;12.65;9.90;;;15.80;94.60;;;;;;5058327;28;20186;-35
2021/04/28 09:53:06;;;;;;;11.43;9.02;;;15.90;94.80;;;;;;5051810;28;20432;-35
2021/04/28 09:55:45;;;;;;;11.07;7.38;;;16.00;94.70;;;;;;5065281;28;20199;-35
2021/04/28 09:58:13;;;;;;;10.18;8.63;;;16.00;94.20;;;;;;5060485;28;20662;-35
2021/04/28 10:00:40;;;;;;;9.23;8.32;;;16.20;94.80;;;;;;5058311;28;20195;-35
2021/04/28 10:03:09;;;;;;;9.75;8.85;;;16.40;94.80;;;;;;5055958;28;20215;-35
2021/04/28 10:05:41;;;;;;;10.93;8.25;;;16.40;94.50;;;;;;5060800;28;20195;-35
2021/04/28 10:08:16;;;;;;;8.80;7.90;;;16.40;94.20;;;;;;5061413;28;20195;-35
2021/04/28 10:10:46;;;;;;;10.55;9.45;;;16.40;94.50;;;;;;5057061;28;20687;-35
2021/04/28 10:13:14;;;;;;;10.63;8.55;;;16.60;94.50;;;;;;5055291;28;20211;-35
2021/04/28 10:15:41;;;;;;;10.73;9.63;;;16.70;94.30;;;;;;5058070;28;20190;-35
2021/04/28 10:18:09;;;;;;;11.65;8.65;;;16.80;94.60;;;;;;5053975;28;20241;-35
2021/04/28 10:20:38;;;;;;;10.82;9.15;;;16.80;94.40;;;;;;5056323;28;20188;-34
2021/04/28 10:23:06;;;;;;;10.25;7.97;;;17.00;94.70;;;;;;5060691;28;20600;-34
2021/04/28 10:25:34;;;;;;;10.35;9.38;;;17.30;94.90;;;;;;5063795;28;20194;-34
2021/04/28 10:28:03;;;;;;;11.60;8.55;;;17.30;93.90;;;;;;5054849;28;20211;-35
2021/04/28 10:30:30;;;;;;;9.65;8.68;;;17.50;93.80;;;;;;5047386;28;20222;-34
2021/04/28 10:32:58;;;;;;;11.40;8.50;;;17.60;94.20;;;;;;5048916;28;20274;-35
2021/04/28 10:35:28;;;;;;;14.13;9.70;;;17.80;94.20;;;;;;5045914;28;20265;-37
2021/04/28 10:37:56;;;;;;;9.98;8.98;;;17.80;94.20;;;;;;5052676;28;20200;-36
2021/04/28 10:40:25;;;;;;;12.55;10.63;;;17.80;93.60;;;;;;5055789;28;20317;-37
2021/04/28 10:42:52;;;;;;;11.10;9.75;;;17.70;93.50;;;;;;5063252;28;20512;-36
2021/04/28 10:45:37;;;;;;;11.35;10.25;;;17.70;94.00;;;;;;5048969;28;20200;-36
2021/04/28 10:48:11;;;;;;;12.07;9.30;;;17.90;93.40;;;;;;5052731;28;20207;-36
2021/04/28 10:50:39;;;;;;;10.43;9.32;;;18.00;93.40;;;;;;5046333;28;20670;-36
2021/04/28 10:53:16;;;;;;;10.90;9.18;;;18.10;93.50;;;;;;5048343;28;20333;-37
2021/04/28 10:55:46;;;;;;;12.65;10.32;;;18.30;93.10;;;;;;5036766;28;20674;-36
2021/04/28 10:58:41;;;;;;;12.45;10.13;;;18.50;93.20;;;;;;5044915;28;20205;-36
2021/04/28 11:01:33;;;;;;;40.92;31.23;;;18.50;92.60;;;;;;5055724;28;20565;-36
2021/04/28 11:04:00;;;;;;;15.32;11.38;;;18.60;93.20;;;;;;5057804;28;20306;-36
2021/04/28 11:06:38;;;;;;;13.40;10.13;;;18.60;93.30;;;;;;5058337;28;20278;-36
2021/04/28 11:09:13;;;;;;;14.55;10.82;;;18.70;92.80;;;;;;5058389;28;20199;-37
2021/04/28 11:11:42;;;;;;;11.98;9.60;;;18.60;92.50;;;;;;5051699;28;20203;-36
2021/04/28 11:14:50;;;;;;;11.73;9.35;;;18.60;92.20;;;;;;5045181;28;20240;-37
2021/04/28 11:17:27;;;;;;;12.43;10.13;;;18.60;93.20;;;;;;4968070;28;20240;-36
2021/04/28 11:19:55;;;;;;;13.13;10.35;;;18.80;93.10;;;;;;5031212;28;20531;-36
2021/04/28 11:22:28;;;;;;;15.85;10.82;;;18.90;92.70;;;;;;5052562;28;20653;-37
2021/04/28 11:25:05;;;;;;;11.23;10.02;;;19.00;92.80;;;;;;5057190;28;20215;-36
2021/04/28 11:27:46;;;;;;;13.93;10.68;;;19.20;92.80;;;;;;5049884;28;20281;-34
2021/04/28 11:30:46;;;;;;;11.90;9.38;;;19.30;92.50;;;;;;5043673;28;20191;-35
2021/04/28 11:33:16;;;;;;;13.05;10.85;;;19.40;93.20;;;;;;4985974;28;20304;-35
2021/04/28 11:35:45;;;;;;;12.75;10.80;;;19.60;92.90;;;;;;5036541;28;20226;-36
2021/04/28 11:38:14;;;;;;;11.30;10.18;;;19.90;92.00;;;;;;5048705;28;20249;-36
2021/04/28 11:41:01;;;;;;;12.00;10.25;;;20.20;91.70;;;;;;5043612;28;20353;-36
2021/04/28 11:43:29;;;;;;;10.52;9.52;;;20.50;91.30;;;;;;5040704;28;20289;-37
2021/04/28 11:46:02;;;;;;;13.45;10.75;;;20.80;91.30;;;;;;5038642;28;20294;-36
2021/04/28 11:48:32;;;;;;;11.35;10.25;;;21.00;90.80;;;;;;5057647;28;20214;-35
2021/04/28 11:51:00;;;;;;;14.32;10.63;;;21.10;91.40;;;;;;5059519;28;20190;-35
2021/04/28 11:53:28;;;;;;;14.02;9.65;;;21.30;90.80;;;;;;5048439;28;20247;-36
2021/04/28 11:55:56;;;;;;;12.00;9.90;;;21.90;89.80;;;;;;5044976;28;20195;-35
2021/04/28 11:58:25;;;;;;;11.38;9.27;;;22.10;90.40;;;;;;5060907;28;20275;-35
2021/04/28 12:01:01;;;;;;;12.52;11.32;;;22.70;89.30;;;;;;5039922;28;20196;-36
2021/04/28 12:03:57;;;;;;;13.30;9.52;;;22.90;90.30;;;;;;5050147;28;20226;-36
2021/04/28 12:06:42;;;;;;;11.25;9.98;;;23.00;91.00;;;;;;5034790;28;20199;-35
2021/04/28 12:09:40;;;;;;;13.88;11.63;;;23.00;88.40;;;;;;5039087;28;20238;-36
2021/04/28 12:12:12;;;;;;;13.00;11.75;;;22.70;87.90;;;;;;5031384;28;20196;-36
2021/04/28 12:14:41;;;;;;;13.90;10.63;;;22.20;85.60;;;;;;5040325;28;20298;-36
2021/04/28 12:17:07;;;;;;;15.23;10.75;;;21.50;86.80;;;;;;5035920;28;20206;-36
2021/04/28 12:19:36;;;;;;;12.27;11.00;;;20.80;89.30;;;;;;5041451;28;20211;-36
2021/04/28 12:22:05;;;;;;;12.75;11.00;;;21.30;89.70;;;;;;5042941;28;20709;-36
2021/04/28 12:24:34;;;;;;;14.40;11.15;;;21.90;88.40;;;;;;5045028;28;20233;-36
2021/04/28 12:27:18;;;;;;;13.05;10.55;;;22.40;87.90;;;;;;5039986;28;20214;-35
2021/04/28 12:29:47;;;;;;;11.93;10.73;;;22.50;90.10;;;;;;5038036;28;20239;-35
2021/04/28 12:32:22;;;;;;;14.40;11.30;;;22.90;88.60;;;;;;5054107;28;20191;-35
2021/04/28 12:35:05;;;;;;;18.13;13.00;;;22.90;86.10;;;;;;5055381;28;20222;-36
2021/04/28 12:37:32;;;;;;;18.00;13.82;;;22.90;86.30;;;;;;5055585;28;20213;-35
2021/04/28 12:40:00;;;;;;;15.63;13.98;;;22.60;86.60;;;;;;5060188;28;20278;-35
2021/04/28 12:42:30;;;;;;;19.20;11.50;;;22.80;87.20;;;;;;5058422;28;20724;-35
2021/04/28 12:44:58;;;;;;;14.18;11.93;;;22.80;86.70;;;;;;5054416;28;20211;-35
2021/04/28 12:47:27;;;;;;;10.48;9.35;;;23.10;86.20;;;;;;5053862;28;20225;-36
2021/04/28 12:50:14;;;;;;;11.15;9.88;;;23.30;86.70;;;;;;5056219;28;20234;-36
2021/04/28 12:52:42;;;;;;;12.35;11.05;;;23.40;85.50;;;;;;5060663;28;20192;-38
2021/04/28 12:55:26;;;;;;;15.43;11.98;;;23.40;86.20;;;;;;5061893;28;20357;-36
2021/04/28 12:57:54;;;;;;;12.32;10.65;;;23.30;84.20;;;;;;5063891;28;20336;-36
2021/04/28 13:00:22;;;;;;;14.85;10.60;;;23.00;85.60;;;;;;5063030;28;20221;-35
2021/04/28 13:03:09;;;;;;;16.20;11.85;;;22.50;84.50;;;;;;5063761;28;20596;-35
2021/04/28 13:05:38;;;;;;;11.48;9.40;;;22.50;85.20;;;;;;5059153;28;20727;-35
2021/04/28 13:08:32;;;;;;;11.00;9.77;;;22.70;86.10;;;;;;5063060;28;20334;-35